Time;durP1;ratioP1;P1;durP2;ratioP2;P2;SDS_P1;SDS_P2;PMS_P1;PMS_P2;Temp;Humidity;BMP_temperature;BMP_pressure;BME280_temperature;BME280_humidity;BME280_pressure;Samples;Min_cycle;Max_cycle;Signal;HPM_P1;HPM_P2
2022/09/03 00:00:23;;;;;;;2.20;2.00;;;19.10;54.60;;;;;;5044900;28;20083;-58
2022/09/03 00:03:21;;;;;;;3.50;1.65;;;19.10;54.80;;;;;;5050707;28;20025;-57
2022/09/03 00:06:09;;;;;;;1.75;1.60;;;19.10;54.90;;;;;;5050366;28;20032;-57
2022/09/03 00:08:53;;;;;;;3.03;2.38;;;19.10;55.00;;;;;;5050717;28;20098;-57
2022/09/03 00:11:19;;;;;;;1.92;1.80;;;19.10;55.20;;;;;;5038282;28;20032;-57
2022/09/03 00:13:56;;;;;;;1.60;1.50;;;19.10;54.90;;;;;;5048915;28;20025;-57
2022/09/03 00:16:24;;;;;;;1.98;1.77;;;19.10;54.90;;;;;;5049218;28;20071;-57
2022/09/03 00:18:56;;;;;;;1.60;1.50;;;19.10;54.80;;;;;;5042091;28;20029;-58
2022/09/03 00:21:40;;;;;;;1.83;1.73;;;19.10;54.90;;;;;;5047377;28;20025;-57
2022/09/03 00:24:10;;;;;;;2.25;1.73;;;19.10;54.90;;;;;;5051894;28;20120;-57
2022/09/03 00:26:38;;;;;;;1.67;1.58;;;19.10;55.10;;;;;;5033953;28;20507;-57
2022/09/03 00:29:22;;;;;;;1.70;1.60;;;19.10;55.00;;;;;;5052778;28;20033;-56
2022/09/03 00:31:55;;;;;;;1.63;1.52;;;19.10;55.20;;;;;;5040400;28;20027;-57
2022/09/03 00:34:45;;;;;;;1.52;1.42;;;19.10;55.30;;;;;;5051206;28;20037;-58
2022/09/03 00:37:11;;;;;;;1.55;1.42;;;19.10;55.20;;;;;;5048149;28;20045;-57
2022/09/03 00:39:37;;;;;;;1.65;1.55;;;19.10;55.30;;;;;;5052339;28;20412;-57
2022/09/03 00:42:27;;;;;;;1.52;1.40;;;19.10;55.40;;;;;;5049891;28;20033;-57
2022/09/03 00:45:11;;;;;;;1.63;1.52;;;19.10;55.40;;;;;;5048352;28;20028;-57
2022/09/03 00:47:39;;;;;;;1.98;1.80;;;19.10;55.60;;;;;;5047367;28;20021;-58
2022/09/03 00:50:38;;;;;;;2.08;1.85;;;19.10;55.30;;;;;;5045722;28;20044;-57
2022/09/03 00:53:27;;;;;;;2.05;1.80;;;19.10;55.40;;;;;;5048119;28;20029;-59
2022/09/03 00:56:34;;;;;;;2.10;1.77;;;19.10;56.30;;;;;;5051083;28;20102;-58
2022/09/03 00:59:24;;;;;;;1.55;1.45;;;19.10;55.70;;;;;;5045245;28;20163;-57
2022/09/03 01:02:00;;;;;;;2.85;1.60;;;19.10;55.60;;;;;;5043196;28;20021;-58
2022/09/03 01:04:28;;;;;;;2.03;1.83;;;19.10;55.60;;;;;;5046283;28;20028;-57
2022/09/03 01:07:17;;;;;;;1.60;1.50;;;19.10;55.60;;;;;;5042420;28;20025;-57
2022/09/03 01:10:00;;;;;;;2.03;1.90;;;19.10;56.00;;;;;;5052341;28;20037;-57
2022/09/03 01:12:43;;;;;;;2.15;1.85;;;19.10;55.70;;;;;;5050461;28;20148;-57
2022/09/03 01:15:16;;;;;;;2.13;1.70;;;19.10;55.70;;;;;;5049767;28;20070;-58
2022/09/03 01:18:05;;;;;;;1.70;1.60;;;19.10;55.90;;;;;;5046898;28;20075;-57
2022/09/03 01:21:18;;;;;;;1.80;1.70;;;19.10;55.80;;;;;;5045475;28;20029;-58
2022/09/03 01:23:53;;;;;;;1.60;1.50;;;19.10;55.90;;;;;;4966574;28;20114;-58
2022/09/03 01:26:30;;;;;;;1.88;1.77;;;19.10;55.80;;;;;;4964244;28;20557;-56
2022/09/03 01:29:11;;;;;;;1.60;1.48;;;19.10;56.00;;;;;;5028449;28;20488;-58
2022/09/03 01:31:47;;;;;;;2.10;1.98;;;19.10;56.10;;;;;;5049683;28;20028;-57
2022/09/03 01:34:41;;;;;;;1.75;1.65;;;19.10;56.00;;;;;;5037854;28;20033;-57
2022/09/03 01:37:26;;;;;;;1.70;1.60;;;19.10;56.20;;;;;;5053396;28;20040;-57
2022/09/03 01:39:54;;;;;;;1.40;1.30;;;19.10;56.30;;;;;;5053717;28;20026;-57
2022/09/03 01:42:32;;;;;;;2.17;1.85;;;19.10;56.30;;;;;;5049973;28;20039;-58
2022/09/03 01:45:30;;;;;;;1.70;1.60;;;19.10;56.30;;;;;;5055715;28;20504;-57
2022/09/03 01:48:01;;;;;;;1.50;1.40;;;19.10;56.20;;;;;;5051603;28;20033;-56
2022/09/03 01:50:27;;;;;;;1.52;1.42;;;19.10;56.00;;;;;;5051039;28;20037;-58
2022/09/03 01:53:12;;;;;;;2.00;1.90;;;19.10;55.80;;;;;;5053797;28;20044;-57
2022/09/03 01:55:43;;;;;;;1.60;1.50;;;19.10;55.80;;;;;;5052967;28;20033;-59
2022/09/03 01:58:39;;;;;;;1.67;1.58;;;19.10;55.90;;;;;;5048592;28;20040;-56
2022/09/03 02:01:13;;;;;;;2.15;1.75;;;19.10;55.80;;;;;;5044108;28;20056;-57
2022/09/03 02:03:43;;;;;;;1.70;1.60;;;19.10;55.80;;;;;;5052106;28;20017;-57
2022/09/03 02:06:11;;;;;;;1.90;1.70;;;19.10;56.00;;;;;;5050073;28;20029;-57
2022/09/03 02:08:37;;;;;;;2.10;1.70;;;19.10;56.00;;;;;;5055810;28;20033;-57
2022/09/03 02:11:07;;;;;;;1.92;1.70;;;19.10;56.00;;;;;;5059228;28;20033;-56
2022/09/03 02:13:40;;;;;;;1.55;1.45;;;19.10;55.90;;;;;;5042723;28;20067;-56
2022/09/03 02:16:13;;;;;;;1.58;1.48;;;19.10;56.10;;;;;;5053141;28;20041;-57
2022/09/03 02:18:44;;;;;;;1.58;1.48;;;19.20;56.30;;;;;;5047134;28;20022;-58
2022/09/03 02:21:12;;;;;;;;;;;19.10;56.10;;;;;;5054445;28;20029;-57
2022/09/03 02:23:41;;;;;;;3.65;1.38;;;19.10;56.10;;;;;;5055093;28;19904;-57
2022/09/03 02:26:10;;;;;;;2.38;1.50;;;19.10;56.10;;;;;;5054458;28;20059;-59
2022/09/03 02:28:36;;;;;;;1.92;1.83;;;19.10;56.20;;;;;;5051129;28;20398;-58
2022/09/03 02:31:03;;;;;;;2.13;1.58;;;19.10;56.10;;;;;;5052866;28;20033;-57
2022/09/03 02:33:31;;;;;;;1.80;1.70;;;19.10;56.30;;;;;;5052885;28;20501;-58
2022/09/03 02:35:56;;;;;;;1.77;1.40;;;19.00;56.30;;;;;;5054386;28;20033;-57
2022/09/03 02:38:27;;;;;;;1.95;1.60;;;19.00;56.40;;;;;;5054041;28;20056;-58
2022/09/03 02:40:53;;;;;;;2.15;1.67;;;19.00;56.40;;;;;;5049181;28;20109;-58
2022/09/03 02:43:52;;;;;;;2.00;1.88;;;19.00;56.40;;;;;;5051368;28;20033;-57
2022/09/03 02:46:26;;;;;;;1.63;1.52;;;19.00;56.60;;;;;;5043842;28;20128;-57
2022/09/03 02:48:52;;;;;;;2.10;1.90;;;19.00;56.50;;;;;;5044602;28;20068;-57
2022/09/03 02:51:18;;;;;;;1.92;1.70;;;18.90;56.40;;;;;;5050644;28;20094;-58
2022/09/03 02:53:44;;;;;;;2.28;1.90;;;19.00;56.40;;;;;;5054608;28;20017;-57
2022/09/03 02:56:10;;;;;;;1.75;1.65;;;19.00;56.50;;;;;;5053601;28;20044;-57
2022/09/03 02:58:36;;;;;;;1.63;1.52;;;19.00;56.50;;;;;;5053928;28;20025;-57
2022/09/03 03:01:03;;;;;;;1.45;1.38;;;18.90;56.40;;;;;;5049599;28;20504;-59
2022/09/03 03:03:29;;;;;;;1.50;1.40;;;18.90;56.40;;;;;;5057319;28;20023;-59
2022/09/03 03:05:57;;;;;;;2.15;1.80;;;18.90;56.50;;;;;;5051236;28;20108;-57
2022/09/03 03:08:26;;;;;;;1.88;1.73;;;18.90;56.60;;;;;;5054482;28;20029;-57
2022/09/03 03:10:55;;;;;;;2.08;1.85;;;19.00;56.60;;;;;;5046039;28;20025;-57
2022/09/03 03:13:20;;;;;;;1.70;1.60;;;18.90;56.50;;;;;;5054540;28;20025;-57
2022/09/03 03:15:47;;;;;;;1.77;1.67;;;19.00;56.60;;;;;;5028817;28;20033;-57
2022/09/03 03:18:13;;;;;;;2.20;1.80;;;18.90;56.50;;;;;;5048665;28;20068;-58
2022/09/03 03:24:02;;;;;;;1.65;1.55;;;18.90;56.70;;;;;;5051797;28;20032;-57
2022/09/03 03:26:28;;;;;;;1.60;1.50;;;19.00;56.90;;;;;;5053528;28;20033;-58
2022/09/03 03:28:58;;;;;;;1.70;1.60;;;18.90;56.80;;;;;;5053899;28;20048;-57
2022/09/03 03:31:24;;;;;;;1.70;1.60;;;18.90;56.90;;;;;;5051447;28;20021;-58
2022/09/03 03:33:54;;;;;;;1.77;1.67;;;18.90;56.90;;;;;;5051751;28;20025;-57
2022/09/03 03:36:22;;;;;;;1.50;1.40;;;18.90;57.00;;;;;;5043702;28;20116;-57
2022/09/03 03:38:47;;;;;;;1.75;1.52;;;18.90;57.10;;;;;;5052566;28;20081;-58
2022/09/03 03:41:21;;;;;;;1.98;1.77;;;18.90;57.10;;;;;;5051738;28;20064;-57
2022/09/03 03:43:52;;;;;;;2.22;1.85;;;18.90;57.10;;;;;;5049753;28;20020;-59
2022/09/03 03:46:17;;;;;;;2.03;1.63;;;18.90;57.30;;;;;;5046998;28;20036;-57
2022/09/03 03:48:43;;;;;;;1.50;1.40;;;18.90;57.30;;;;;;5034690;28;20033;-57
2022/09/03 03:51:09;;;;;;;2.35;1.85;;;18.90;57.20;;;;;;5049237;28;20398;-57
2022/09/03 03:53:37;;;;;;;1.75;1.65;;;18.90;57.30;;;;;;5052109;28;20040;-57
2022/09/03 03:56:06;;;;;;;2.10;1.90;;;18.80;57.30;;;;;;5052323;28;20087;-57
2022/09/03 03:58:32;;;;;;;1.95;1.63;;;18.80;57.30;;;;;;5053076;28;20053;-57
2022/09/03 04:01:25;;;;;;;2.40;1.90;;;18.80;57.20;;;;;;5049973;28;20366;-57
2022/09/03 04:03:53;;;;;;;1.92;1.70;;;18.80;57.30;;;;;;5040624;28;20112;-57
2022/09/03 04:06:19;;;;;;;1.45;1.35;;;18.70;57.30;;;;;;5048640;28;20054;-57
2022/09/03 04:08:47;;;;;;;2.00;1.88;;;18.80;57.30;;;;;;5052417;28;20052;-57
2022/09/03 04:11:15;;;;;;;2.03;1.85;;;18.80;57.30;;;;;;5048300;28;20029;-57
2022/09/03 04:13:42;;;;;;;1.73;1.60;;;18.80;57.30;;;;;;5052889;28;20112;-58
2022/09/03 04:16:14;;;;;;;1.73;1.55;;;18.70;57.20;;;;;;5049627;28;20037;-57
2022/09/03 04:18:40;;;;;;;2.38;1.83;;;18.80;57.10;;;;;;5043934;28;20101;-57
2022/09/03 04:21:09;;;;;;;2.28;1.90;;;18.80;57.20;;;;;;5052183;28;20025;-57
2022/09/03 04:23:37;;;;;;;2.10;1.73;;;18.80;57.30;;;;;;5049427;28;20028;-57
2022/09/03 04:26:05;;;;;;;2.05;1.92;;;18.70;57.20;;;;;;5049567;28;20048;-58
2022/09/03 04:28:31;;;;;;;2.35;1.70;;;18.70;57.10;;;;;;5052688;28;20092;-57
2022/09/03 04:31:17;;;;;;;1.45;1.35;;;18.70;57.00;;;;;;5047155;28;20033;-56
2022/09/03 04:33:43;;;;;;;2.45;1.98;;;18.70;56.90;;;;;;5049742;28;20029;-57
2022/09/03 04:36:11;;;;;;;2.30;2.10;;;18.70;56.90;;;;;;5033657;28;20358;-57
2022/09/03 04:38:41;;;;;;;1.80;1.63;;;18.60;57.00;;;;;;5051917;28;20044;-57
2022/09/03 04:41:09;;;;;;;3.25;2.00;;;18.60;57.00;;;;;;5053155;28;20108;-56
2022/09/03 04:43:35;;;;;;;2.17;1.80;;;18.60;56.90;;;;;;5052473;28;20388;-57
2022/09/03 04:46:03;;;;;;;2.47;1.90;;;18.50;56.80;;;;;;5050524;28;20029;-58
2022/09/03 04:48:30;;;;;;;2.17;1.80;;;18.50;56.80;;;;;;5034064;28;20029;-57
2022/09/03 04:51:10;;;;;;;1.85;1.75;;;18.50;56.90;;;;;;5044196;28;20021;-57
2022/09/03 04:53:38;;;;;;;1.65;1.30;;;18.50;56.90;;;;;;5050597;28;20029;-57
2022/09/03 04:56:13;;;;;;;1.60;1.38;;;18.50;57.10;;;;;;5047643;28;20029;-58
2022/09/03 04:58:38;;;;;;;1.90;1.65;;;18.40;57.00;;;;;;5046910;28;20029;-57
2022/09/03 05:01:09;;;;;;;2.35;1.65;;;18.40;57.00;;;;;;5047820;28;20029;-57
2022/09/03 05:03:36;;;;;;;2.17;1.73;;;18.40;57.00;;;;;;5064923;28;20104;-56
2022/09/03 05:06:02;;;;;;;1.42;1.33;;;18.50;57.20;;;;;;5058260;28;20036;-57
2022/09/03 05:08:28;;;;;;;2.80;1.70;;;18.40;57.30;;;;;;5059147;28;20029;-57
2022/09/03 05:11:00;;;;;;;1.98;1.55;;;18.50;57.20;;;;;;5056130;28;20075;-58
2022/09/03 05:13:27;;;;;;;2.22;1.80;;;18.50;57.30;;;;;;5040455;28;20388;-57
2022/09/03 05:16:07;;;;;;;1.80;1.70;;;18.50;57.50;;;;;;5052205;28;20468;-59
2022/09/03 05:18:36;;;;;;;1.70;1.60;;;18.50;57.60;;;;;;5051877;28;20036;-57
2022/09/03 05:21:05;;;;;;;1.95;1.80;;;18.60;57.80;;;;;;5035193;28;20053;-57
2022/09/03 05:23:31;;;;;;;1.77;1.67;;;18.60;57.80;;;;;;5051991;28;20029;-59
2022/09/03 05:25:58;;;;;;;2.03;1.42;;;18.60;57.70;;;;;;5058487;28;20381;-56
2022/09/03 05:28:29;;;;;;;2.28;2.00;;;18.60;57.80;;;;;;5052135;28;20076;-57
2022/09/03 05:31:05;;;;;;;3.10;1.55;;;18.60;57.90;;;;;;5056474;28;20108;-57
2022/09/03 05:33:39;;;;;;;3.20;1.67;;;18.60;58.10;;;;;;5057839;28;20521;-57
2022/09/03 05:36:07;;;;;;;1.70;1.60;;;18.60;58.00;;;;;;5058338;28;20113;-57
2022/09/03 05:38:33;;;;;;;1.80;1.70;;;18.60;57.60;;;;;;5057522;28;20063;-58
2022/09/03 05:41:00;;;;;;;1.65;1.55;;;18.60;57.60;;;;;;5059246;28;20101;-57
2022/09/03 05:43:27;;;;;;;1.88;1.67;;;18.50;57.50;;;;;;5057506;28;21076;-58
2022/09/03 05:46:03;;;;;;;2.05;1.80;;;18.50;57.60;;;;;;5053791;28;21946;-58
2022/09/03 05:48:30;;;;;;;1.85;1.65;;;18.50;57.80;;;;;;5057091;28;20024;-58
2022/09/03 05:51:04;;;;;;;1.70;1.60;;;18.50;57.80;;;;;;5057433;28;20029;-58
2022/09/03 05:53:31;;;;;;;1.63;1.52;;;18.50;57.80;;;;;;5055562;28;20029;-57
2022/09/03 05:56:00;;;;;;;2.63;1.95;;;18.60;57.90;;;;;;5055613;28;20042;-56
2022/09/03 05:58:42;;;;;;;1.48;1.35;;;18.60;57.70;;;;;;5058765;28;20029;-58
2022/09/03 06:01:20;;;;;;;1.60;1.50;;;18.60;57.80;;;;;;5056579;28;20036;-57
2022/09/03 06:03:52;;;;;;;1.63;1.40;;;18.70;57.80;;;;;;5065932;28;20025;-57
2022/09/03 06:06:18;;;;;;;1.67;1.58;;;18.70;57.70;;;;;;5057290;28;20457;-56
2022/09/03 06:08:43;;;;;;;1.92;1.63;;;18.70;57.80;;;;;;5057498;28;20041;-57
2022/09/03 06:11:09;;;;;;;1.73;1.63;;;18.70;57.70;;;;;;5057634;28;20028;-58
2022/09/03 06:13:36;;;;;;;1.70;1.60;;;18.80;57.60;;;;;;5053233;28;20121;-57
2022/09/03 06:16:06;;;;;;;2.20;1.67;;;18.80;57.70;;;;;;5045155;28;20033;-57
2022/09/03 06:18:32;;;;;;;2.05;1.70;;;18.80;57.50;;;;;;5050369;28;20025;-57
2022/09/03 06:21:03;;;;;;;1.48;1.38;;;18.80;57.40;;;;;;5054376;28;20112;-57
2022/09/03 06:23:30;;;;;;;2.10;1.85;;;18.80;57.30;;;;;;5054792;28;20116;-57
2022/09/03 06:26:14;;;;;;;2.00;1.90;;;18.90;57.20;;;;;;5053596;28;20044;-58
2022/09/03 06:28:44;;;;;;;1.83;1.70;;;18.90;57.20;;;;;;5049680;28;20030;-58
2022/09/03 06:31:12;;;;;;;2.15;1.67;;;18.90;57.20;;;;;;5053200;28;20040;-56
2022/09/03 06:33:38;;;;;;;1.55;1.45;;;18.90;57.30;;;;;;5036133;28;20380;-57
2022/09/03 06:36:06;;;;;;;1.83;1.73;;;18.90;57.30;;;;;;5035993;28;20357;-57
2022/09/03 06:38:36;;;;;;;3.25;1.90;;;18.90;57.30;;;;;;5053440;28;20085;-58
2022/09/03 06:41:04;;;;;;;1.98;1.58;;;18.90;57.20;;;;;;5046473;28;20048;-57
2022/09/03 06:43:33;;;;;;;1.75;1.65;;;18.90;57.30;;;;;;5053674;28;20027;-58
2022/09/03 06:46:10;;;;;;;2.00;1.80;;;18.90;57.30;;;;;;5052018;28;20033;-57
2022/09/03 06:48:37;;;;;;;1.73;1.40;;;19.00;57.30;;;;;;5051058;28;20059;-57
2022/09/03 06:51:11;;;;;;;1.60;1.50;;;18.90;57.30;;;;;;5053129;28;20561;-58
2022/09/03 06:53:41;;;;;;;1.48;1.38;;;18.90;57.30;;;;;;5054671;28;20534;-57
2022/09/03 06:56:10;;;;;;;1.60;1.50;;;19.00;57.20;;;;;;5053395;28;20033;-57
2022/09/03 06:58:38;;;;;;;2.28;1.80;;;18.90;57.30;;;;;;5046264;28;20030;-57
2022/09/03 07:01:15;;;;;;;2.92;2.10;;;18.90;57.30;;;;;;5051566;28;20063;-58
2022/09/03 07:03:43;;;;;;;2.17;1.70;;;18.90;57.40;;;;;;5056027;28;20032;-57
2022/09/03 07:06:14;;;;;;;2.00;1.80;;;18.90;57.50;;;;;;5047052;28;20029;-59
2022/09/03 07:08:41;;;;;;;3.47;1.90;;;18.90;57.40;;;;;;5053965;28;20107;-57
2022/09/03 07:11:13;;;;;;;1.55;1.45;;;18.90;57.50;;;;;;5051303;28;20395;-58
2022/09/03 07:13:41;;;;;;;2.47;1.95;;;18.80;57.60;;;;;;5043882;28;20121;-57
2022/09/03 07:16:09;;;;;;;1.77;1.67;;;18.80;57.80;;;;;;5053506;28;20032;-59
2022/09/03 07:18:35;;;;;;;2.20;1.90;;;18.80;57.80;;;;;;5046001;28;20144;-57
2022/09/03 07:21:03;;;;;;;2.10;1.90;;;18.70;57.90;;;;;;5054209;28;20445;-57
2022/09/03 07:23:30;;;;;;;2.80;2.10;;;18.80;58.00;;;;;;5048034;28;20028;-57
2022/09/03 07:25:59;;;;;;;2.03;1.80;;;18.80;58.00;;;;;;5046388;28;20529;-57
2022/09/03 07:28:26;;;;;;;1.55;1.45;;;18.70;58.00;;;;;;5044730;28;20032;-57
2022/09/03 07:30:53;;;;;;;3.20;1.95;;;18.80;58.00;;;;;;5051167;28;20488;-57
2022/09/03 07:33:19;;;;;;;1.95;1.85;;;18.80;58.00;;;;;;5052769;28;20423;-56
2022/09/03 07:35:46;;;;;;;2.15;1.88;;;18.80;58.10;;;;;;5050245;28;20029;-57
2022/09/03 07:38:18;;;;;;;2.20;2.00;;;18.80;58.10;;;;;;5052611;28;20119;-56
2022/09/03 07:40:45;;;;;;;1.85;1.75;;;18.80;58.20;;;;;;5050925;28;20021;-58
2022/09/03 07:43:12;;;;;;;2.90;1.92;;;18.80;58.30;;;;;;5051955;28;20033;-56
2022/09/03 07:45:38;;;;;;;3.08;2.08;;;18.80;58.20;;;;;;5046200;28;20032;-57
2022/09/03 07:48:04;;;;;;;2.78;2.22;;;18.80;58.20;;;;;;5047698;28;20040;-57
2022/09/03 07:50:36;;;;;;;2.80;2.03;;;18.80;58.30;;;;;;5042674;28;20029;-57
2022/09/03 07:53:02;;;;;;;3.25;2.20;;;18.80;58.30;;;;;;5053645;28;20381;-57
2022/09/03 07:55:28;;;;;;;2.72;1.90;;;18.80;58.40;;;;;;5052130;28;20029;-57
2022/09/03 07:57:58;;;;;;;2.08;1.88;;;18.80;58.50;;;;;;5048725;28;20064;-56
2022/09/03 08:00:24;;;;;;;2.70;2.33;;;18.80;58.50;;;;;;5051924;28;20057;-57
2022/09/03 08:02:53;;;;;;;3.85;2.60;;;18.80;58.50;;;;;;5033731;28;20021;-56
2022/09/03 08:05:20;;;;;;;3.00;2.53;;;18.80;58.70;;;;;;5046302;28;20385;-57
2022/09/03 08:07:47;;;;;;;3.45;2.38;;;18.80;58.60;;;;;;5050378;28;20029;-56
2022/09/03 08:10:13;;;;;;;2.67;2.40;;;18.80;58.80;;;;;;5052871;28;20185;-57
2022/09/03 08:12:39;;;;;;;3.40;2.33;;;18.80;58.80;;;;;;5052094;28;20533;-56
2022/09/03 08:15:05;;;;;;;2.53;2.30;;;18.80;58.90;;;;;;5050621;28;20096;-56
2022/09/03 08:17:32;;;;;;;2.47;2.28;;;18.70;58.90;;;;;;5050254;28;20104;-57
2022/09/03 08:19:59;;;;;;;3.08;2.22;;;18.70;59.00;;;;;;5050067;28;20021;-58
2022/09/03 08:22:24;;;;;;;3.25;2.33;;;18.70;59.00;;;;;;5040819;28;20021;-57
2022/09/03 08:24:54;;;;;;;2.63;2.28;;;18.70;59.10;;;;;;5041457;28;20021;-59
2022/09/03 08:27:24;;;;;;;2.47;2.25;;;18.60;59.20;;;;;;5050181;28;20027;-57
2022/09/03 08:29:49;;;;;;;3.17;2.20;;;18.60;59.10;;;;;;5049590;28;20040;-58
2022/09/03 08:32:15;;;;;;;2.40;2.20;;;18.60;59.30;;;;;;5050682;28;20021;-56
2022/09/03 08:34:41;;;;;;;2.25;2.05;;;18.60;59.30;;;;;;5034237;28;20025;-56
2022/09/03 08:37:12;;;;;;;2.85;2.30;;;18.60;59.20;;;;;;5049328;28;20538;-57
2022/09/03 08:39:38;;;;;;;3.05;2.20;;;18.70;59.60;;;;;;5046353;28;20031;-59
2022/09/03 08:42:13;;;;;;;2.50;2.25;;;18.70;59.60;;;;;;5048612;28;20031;-57
2022/09/03 08:44:47;;;;;;;2.08;1.77;;;18.70;59.70;;;;;;5044061;28;20461;-57
2022/09/03 08:47:21;;;;;;;2.13;1.92;;;18.60;59.60;;;;;;5051920;28;20036;-58
2022/09/03 08:50:01;;;;;;;1.80;1.70;;;18.60;59.70;;;;;;5044878;28;20026;-57
2022/09/03 08:52:36;;;;;;;2.60;2.00;;;18.60;59.60;;;;;;5050501;28;20063;-57
2022/09/03 08:55:15;;;;;;;2.22;1.58;;;18.60;59.70;;;;;;5050699;28;20025;-59
2022/09/03 08:57:45;;;;;;;2.88;1.80;;;18.60;59.90;;;;;;5047990;28;20541;-56
2022/09/03 09:00:12;;;;;;;2.88;2.03;;;18.60;59.90;;;;;;5058809;28;20025;-57
2022/09/03 09:02:50;;;;;;;1.63;1.52;;;18.60;60.00;;;;;;5049703;28;20548;-58
2022/09/03 09:05:30;;;;;;;1.92;1.67;;;18.60;59.90;;;;;;5044544;28;20108;-57
2022/09/03 09:08:09;;;;;;;1.90;1.80;;;18.60;60.10;;;;;;5049325;28;20415;-56
2022/09/03 09:10:49;;;;;;;2.20;1.80;;;18.50;60.10;;;;;;5051040;28;20025;-57
2022/09/03 09:13:33;;;;;;;2.75;1.90;;;18.50;60.30;;;;;;5039773;28;20061;-58
2022/09/03 09:16:28;;;;;;;2.53;2.05;;;18.50;60.40;;;;;;5043795;28;20083;-57
2022/09/03 09:18:56;;;;;;;2.10;1.70;;;18.40;60.60;;;;;;5036986;28;20022;-57
2022/09/03 09:21:31;;;;;;;1.80;1.70;;;18.40;60.90;;;;;;5049688;28;20069;-57
2022/09/03 09:24:02;;;;;;;2.63;2.30;;;18.40;61.40;;;;;;5050364;28;20052;-56
2022/09/03 09:26:28;;;;;;;2.42;2.05;;;18.40;61.40;;;;;;5049389;28;20025;-57
2022/09/03 09:29:10;;;;;;;3.50;2.80;;;18.40;61.50;;;;;;5046242;28;20029;-57
2022/09/03 09:31:37;;;;;;;2.60;2.40;;;18.40;61.50;;;;;;5040265;28;20378;-57
2022/09/03 09:34:07;;;;;;;3.00;2.42;;;18.40;61.60;;;;;;5047223;28;20025;-56
2022/09/03 09:36:41;;;;;;;2.42;2.20;;;18.30;61.60;;;;;;5045276;28;20082;-57
2022/09/03 09:39:10;;;;;;;2.45;2.25;;;18.30;61.80;;;;;;5051269;28;20508;-57
2022/09/03 09:41:36;;;;;;;2.65;2.15;;;18.30;62.00;;;;;;5053376;28;20524;-57
2022/09/03 09:44:04;;;;;;;3.35;2.55;;;18.30;62.20;;;;;;5049928;28;20108;-58
2022/09/03 09:46:37;;;;;;;2.70;2.40;;;18.30;62.60;;;;;;5049030;28;20032;-57
2022/09/03 09:49:21;;;;;;;3.28;2.28;;;18.30;62.70;;;;;;5041899;28;20083;-57
2022/09/03 09:51:46;;;;;;;2.97;2.58;;;18.30;62.70;;;;;;5054426;28;20024;-58
2022/09/03 09:54:17;;;;;;;2.58;2.30;;;18.30;62.90;;;;;;5053491;28;20025;-56
2022/09/03 09:56:43;;;;;;;3.28;2.35;;;18.30;63.10;;;;;;5062889;28;20489;-56
2022/09/03 09:59:11;;;;;;;2.47;2.15;;;18.40;63.20;;;;;;5053715;28;20025;-57
2022/09/03 10:01:41;;;;;;;3.35;2.50;;;18.40;63.00;;;;;;5050880;28;20044;-57
2022/09/03 10:04:22;;;;;;;2.40;1.98;;;18.40;63.20;;;;;;5054089;28;20104;-57
2022/09/03 10:07:14;;;;;;;2.05;1.77;;;18.40;63.30;;;;;;5051261;28;20028;-58
2022/09/03 10:09:40;;;;;;;2.78;2.20;;;18.40;63.30;;;;;;5057752;28;20108;-58
2022/09/03 10:12:27;;;;;;;2.60;2.20;;;18.40;63.20;;;;;;5049133;28;20496;-57
2022/09/03 10:15:02;;;;;;;2.50;2.30;;;18.40;63.30;;;;;;5043935;28;20025;-57
2022/09/03 10:17:39;;;;;;;3.25;2.55;;;18.40;63.30;;;;;;5050661;28;20040;-56
2022/09/03 10:20:32;;;;;;;4.28;2.75;;;18.40;63.20;;;;;;5052754;28;20032;-57
2022/09/03 10:23:03;;;;;;;3.35;2.90;;;18.40;63.20;;;;;;5052533;28;20112;-57
2022/09/03 10:25:50;;;;;;;2.63;2.40;;;18.40;63.10;;;;;;5049706;28;20501;-57
2022/09/03 10:28:17;;;;;;;2.33;1.85;;;18.50;63.20;;;;;;5051701;28;20047;-56
2022/09/03 10:31:12;;;;;;;1.83;1.73;;;18.50;62.90;;;;;;5053743;28;20491;-58
2022/09/03 10:33:51;;;;;;;2.03;1.90;;;18.60;62.80;;;;;;5025950;28;20085;-57
2022/09/03 10:36:23;;;;;;;2.10;1.90;;;18.70;62.60;;;;;;5052438;28;20120;-56
2022/09/03 10:39:12;;;;;;;2.10;1.90;;;18.70;62.50;;;;;;5046814;28;20063;-57
2022/09/03 10:42:01;;;;;;;3.88;2.03;;;18.70;62.40;;;;;;5040823;28;20044;-57
2022/09/03 10:45:05;;;;;;;2.13;1.98;;;18.80;62.00;;;;;;5050331;28;20099;-58
2022/09/03 10:48:05;;;;;;;2.42;2.22;;;18.80;61.80;;;;;;5038699;28;20060;-57
2022/09/03 10:50:44;;;;;;;1.90;1.80;;;18.90;61.70;;;;;;5043604;28;20029;-56
2022/09/03 10:53:30;;;;;;;2.13;1.92;;;18.90;61.90;;;;;;5049980;28;20052;-56
2022/09/03 10:56:16;;;;;;;2.08;1.88;;;19.00;61.70;;;;;;5051835;28;20492;-57
2022/09/03 10:59:04;;;;;;;3.50;1.80;;;19.00;61.20;;;;;;5053852;28;20350;-56
2022/09/03 11:01:48;;;;;;;2.67;1.98;;;19.10;61.00;;;;;;5052011;28;20388;-55
2022/09/03 11:04:25;;;;;;;2.40;2.20;;;19.10;60.70;;;;;;5054086;28;20439;-57
2022/09/03 11:07:00;;;;;;;2.17;1.98;;;19.10;60.40;;;;;;5051941;28;20021;-57
2022/09/03 11:09:30;;;;;;;1.65;1.55;;;19.20;60.20;;;;;;5056230;28;20035;-58
2022/09/03 11:11:58;;;;;;;1.73;1.50;;;19.10;60.10;;;;;;5052004;28;20493;-57
2022/09/03 11:14:54;;;;;;;1.90;1.80;;;19.20;60.00;;;;;;5043640;28;20104;-56
2022/09/03 11:17:28;;;;;;;2.47;2.15;;;19.20;59.90;;;;;;5052897;28;20064;-56
2022/09/03 11:20:10;;;;;;;1.70;1.60;;;19.20;59.70;;;;;;5053790;28;20021;-57
2022/09/03 11:22:37;;;;;;;1.75;1.63;;;19.20;59.50;;;;;;5052265;28;20021;-56
2022/09/03 11:25:06;;;;;;;1.77;1.67;;;19.20;59.10;;;;;;5046659;28;20389;-57
2022/09/03 11:27:40;;;;;;;2.28;1.60;;;19.20;58.90;;;;;;5044955;28;20025;-57
2022/09/03 11:30:25;;;;;;;1.20;1.10;;;19.20;58.90;;;;;;5053558;28;20025;-57
2022/09/03 11:32:59;;;;;;;1.42;1.33;;;19.20;58.70;;;;;;5052599;28;20029;-56
2022/09/03 11:35:30;;;;;;;1.27;1.17;;;19.20;58.60;;;;;;5052048;28;20473;-56
2022/09/03 11:38:13;;;;;;;1.30;1.20;;;19.20;58.40;;;;;;5052122;28;20069;-56
2022/09/03 11:41:00;;;;;;;1.25;1.13;;;19.20;58.10;;;;;;5046670;28;20027;-57
2022/09/03 11:43:31;;;;;;;1.40;1.30;;;19.30;57.90;;;;;;5049925;28;20053;-57
2022/09/03 11:46:03;;;;;;;1.42;1.33;;;19.30;57.70;;;;;;5051920;28;20057;-56
2022/09/03 11:48:46;;;;;;;1.70;1.60;;;19.30;57.60;;;;;;5032864;28;20030;-56
2022/09/03 11:51:24;;;;;;;1.52;1.42;;;19.30;57.20;;;;;;5053154;28;20547;-57
2022/09/03 11:53:55;;;;;;;1.40;1.30;;;19.30;57.20;;;;;;5042470;28;20452;-57
2022/09/03 11:56:21;;;;;;;1.50;1.40;;;19.40;57.30;;;;;;5041340;28;20029;-57
2022/09/03 11:58:58;;;;;;;2.22;1.77;;;19.40;57.40;;;;;;5047716;28;20034;-56
2022/09/03 12:01:29;;;;;;;1.92;1.70;;;19.40;57.20;;;;;;5032757;28;20024;-57
2022/09/03 12:04:02;;;;;;;;;;;19.40;57.30;;;;;;5053489;28;20495;-57
2022/09/03 12:06:36;;;;;;;1.33;1.23;;;19.50;57.30;;;;;;5050641;28;19962;-57
2022/09/03 12:09:10;;;;;;;1.50;1.40;;;19.50;57.40;;;;;;5049067;28;20086;-56
2022/09/03 12:11:48;;;;;;;1.25;1.17;;;19.50;57.20;;;;;;5048933;28;20120;-57
2022/09/03 12:14:51;;;;;;;1.52;1.42;;;19.60;57.20;;;;;;5041163;28;20436;-57
2022/09/03 12:17:22;;;;;;;1.30;1.20;;;19.60;56.70;;;;;;5022839;28;20037;-57
2022/09/03 12:19:51;;;;;;;1.92;1.60;;;19.60;56.70;;;;;;5049785;28;20039;-57
2022/09/03 12:22:18;;;;;;;1.70;1.60;;;19.60;56.80;;;;;;5052221;28;20013;-56
2022/09/03 12:24:44;;;;;;;3.00;1.60;;;19.60;56.60;;;;;;5052772;28;20061;-56
2022/09/03 12:27:23;;;;;;;1.30;1.30;;;19.60;56.50;;;;;;5050240;28;20017;-57
2022/09/03 12:29:59;;;;;;;1.65;1.50;;;19.60;56.50;;;;;;5049453;28;20442;-56
2022/09/03 12:32:36;;;;;;;2.50;1.52;;;19.60;56.60;;;;;;5046601;28;20104;-59
2022/09/03 12:35:22;;;;;;;1.33;1.33;;;19.60;56.50;;;;;;5046377;28;20017;-56
2022/09/03 12:37:50;;;;;;;2.03;1.33;;;19.60;56.20;;;;;;5047937;28;20049;-56
2022/09/03 12:40:25;;;;;;;1.80;1.70;;;19.60;56.40;;;;;;5055806;28;20072;-58
2022/09/03 12:42:51;;;;;;;2.05;1.40;;;19.60;56.50;;;;;;5051686;28;20025;-56
2022/09/03 12:45:22;;;;;;;1.50;1.40;;;19.60;56.30;;;;;;5049728;28;20389;-56
2022/09/03 12:47:48;;;;;;;1.50;1.40;;;19.70;56.10;;;;;;5051573;28;20032;-56
2022/09/03 12:50:17;;;;;;;1.40;1.38;;;19.70;56.20;;;;;;5056594;28;20029;-57
2022/09/03 12:52:53;;;;;;;1.58;1.35;;;19.70;56.10;;;;;;5050514;28;20021;-56
2022/09/03 12:55:27;;;;;;;1.65;1.50;;;19.70;56.00;;;;;;5044213;28;20055;-57
2022/09/03 12:58:19;;;;;;;1.45;1.30;;;19.70;56.10;;;;;;5051844;28;20040;-57
2022/09/03 13:00:58;;;;;;;1.90;1.77;;;19.80;56.10;;;;;;5005133;28;20041;-57
2022/09/03 13:03:44;;;;;;;1.02;1.02;;;19.80;56.10;;;;;;5048991;28;20025;-56
2022/09/03 13:06:13;;;;;;;2.25;1.83;;;19.70;55.70;;;;;;5041358;28;20160;-57
2022/09/03 13:09:03;;;;;;;1.40;1.30;;;19.70;55.70;;;;;;5045719;28;20029;-57
2022/09/03 13:11:32;;;;;;;1.20;1.20;;;19.80;55.60;;;;;;5041830;28;20024;-57
2022/09/03 13:14:07;;;;;;;1.40;1.25;;;19.80;55.80;;;;;;5048031;28;20039;-57
2022/09/03 13:16:44;;;;;;;1.50;1.40;;;19.80;55.70;;;;;;5045522;28;20041;-57
2022/09/03 13:19:19;;;;;;;1.80;1.67;;;19.80;55.80;;;;;;5046640;28;20028;-57
2022/09/03 13:22:03;;;;;;;1.45;1.35;;;19.80;55.70;;;;;;5044836;28;20017;-57